Time;durP1;ratioP1;P1;durP2;ratioP2;P2;SDS_P1;SDS_P2;PMS_P1;PMS_P2;Temp;Humidity;BMP_temperature;BMP_pressure;BME280_temperature;BME280_humidity;BME280_pressure;Samples;Min_cycle;Max_cycle;Signal;HPM_P1;HPM_P2
2023/12/24 00:00:09;;;;;;;1.83;1.37;;;;;;;;;;5029069;28;20205;-63
2023/12/24 00:02:36;;;;;;;1.43;1.10;;;;;;;;;;5027470;28;20211;-63
2023/12/24 00:05:03;;;;;;;1.30;1.20;;;;;;;;;;5033690;28;20216;-62
2023/12/24 00:07:32;;;;;;;1.40;1.30;;;;;;;;;;5034862;28;20208;-63
2023/12/24 00:09:59;;;;;;;1.77;1.20;;;;;;;;;;5036174;28;20220;-63
2023/12/24 00:12:26;;;;;;;1.20;1.10;;;;;;;;;;5035400;28;20214;-62
2023/12/24 00:14:54;;;;;;;1.90;1.20;;;;;;;;;;5039674;28;20216;-62
2023/12/24 00:17:21;;;;;;;1.23;1.10;;;;;;;;;;5037886;28;20223;-62
2023/12/24 00:19:48;;;;;;;2.80;1.20;;;;;;;;;;5034037;28;20216;-62
2023/12/24 00:22:15;;;;;;;1.57;1.13;;;;;;;;;;5028931;28;20201;-63
2023/12/24 00:24:45;;;;;;;2.63;1.03;;;;;;;;;;5033262;28;20231;-63
2023/12/24 00:27:12;;;;;;;1.40;1.20;;;;;;;;;;5031238;28;20203;-62
2023/12/24 00:29:39;;;;;;;2.27;1.17;;;;;;;;;;5037252;28;20200;-64
2023/12/24 00:32:06;;;;;;;1.20;1.10;;;;;;;;;;5030206;28;20204;-62
2023/12/24 00:34:34;;;;;;;2.20;1.00;;;;;;;;;;5037772;28;20218;-62
2023/12/24 00:37:01;;;;;;;2.13;1.00;;;;;;;;;;5035191;28;20199;-62
2023/12/24 00:39:28;;;;;;;3.07;1.30;;;;;;;;;;5034285;28;20202;-63
2023/12/24 00:41:56;;;;;;;1.93;1.30;;;;;;;;;;5033672;28;20204;-62
2023/12/24 00:44:23;;;;;;;1.43;1.20;;;;;;;;;;5035877;28;20238;-61
2023/12/24 00:46:51;;;;;;;2.50;1.40;;;;;;;;;;5032712;28;20204;-63
2023/12/24 00:49:18;;;;;;;1.50;1.40;;;;;;;;;;5032047;28;20206;-62
2023/12/24 00:51:45;;;;;;;3.40;1.70;;;;;;;;;;5033049;28;20197;-62
2023/12/24 00:54:12;;;;;;;2.83;1.33;;;;;;;;;;5033469;28;20215;-63
2023/12/24 00:56:39;;;;;;;3.90;1.50;;;;;;;;;;5029178;28;20196;-62
2023/12/24 00:59:08;;;;;;;2.90;1.37;;;;;;;;;;5032653;28;20196;-61
2023/12/24 01:01:35;;;;;;;3.60;1.60;;;;;;;;;;5035665;28;20200;-62
2023/12/24 01:04:02;;;;;;;2.47;1.57;;;;;;;;;;5033703;28;20235;-63
2023/12/24 01:06:29;;;;;;;1.93;1.47;;;;;;;;;;5036168;28;20200;-63
2023/12/24 01:08:56;;;;;;;2.23;1.27;;;;;;;;;;5032362;28;20201;-62
2023/12/24 01:11:23;;;;;;;2.53;1.23;;;;;;;;;;5036661;28;20212;-62
2023/12/24 01:13:50;;;;;;;3.10;1.70;;;;;;;;;;5033824;28;20209;-62
2023/12/24 01:16:19;;;;;;;2.50;1.40;;;;;;;;;;5034450;28;20211;-63
2023/12/24 01:18:47;;;;;;;2.87;1.50;;;;;;;;;;5033442;28;20203;-62
2023/12/24 01:21:14;;;;;;;2.23;1.33;;;;;;;;;;5037913;28;20209;-62
2023/12/24 01:23:41;;;;;;;2.23;1.50;;;;;;;;;;5033018;28;20212;-63
2023/12/24 01:26:08;;;;;;;2.17;1.50;;;;;;;;;;5034932;28;20203;-62
2023/12/24 01:28:35;;;;;;;3.67;1.77;;;;;;;;;;5034866;28;20206;-63
2023/12/24 01:31:03;;;;;;;1.93;1.20;;;;;;;;;;5033135;28;20208;-63
2023/12/24 01:33:31;;;;;;;1.73;1.20;;;;;;;;;;5036390;28;20222;-62
2023/12/24 01:35:58;;;;;;;1.57;1.33;;;;;;;;;;5032103;28;20240;-63
2023/12/24 01:38:25;;;;;;;1.77;1.30;;;;;;;;;;5029560;28;20204;-64
2023/12/24 01:40:52;;;;;;;2.17;1.33;;;;;;;;;;5029377;28;20204;-62
2023/12/24 01:43:19;;;;;;;1.90;1.37;;;;;;;;;;5036681;28;20287;-64
2023/12/24 01:45:46;;;;;;;1.10;1.10;;;;;;;;;;5032037;28;20206;-67
2023/12/24 01:48:15;;;;;;;1.87;0.90;;;;;;;;;;5031904;28;20342;-67
2023/12/24 01:50:45;;;;;;;1.50;1.20;;;;;;;;;;5032890;28;20234;-66
2023/12/24 01:53:12;;;;;;;1.03;0.93;;;;;;;;;;5029935;28;20204;-67
2023/12/24 01:55:40;;;;;;;1.20;1.10;;;;;;;;;;5029620;28;20196;-67
2023/12/24 01:58:07;;;;;;;1.17;1.00;;;;;;;;;;5031016;28;20200;-67
2023/12/24 02:00:34;;;;;;;1.10;1.00;;;;;;;;;;5032917;28;20200;-67
2023/12/24 02:03:02;;;;;;;0.93;0.93;;;;;;;;;;5029323;28;20216;-68
2023/12/24 02:05:30;;;;;;;0.80;0.80;;;;;;;;;;5030126;28;20231;-67
2023/12/24 02:07:58;;;;;;;1.43;1.10;;;;;;;;;;5032374;28;20208;-67
2023/12/24 02:10:25;;;;;;;0.90;0.90;;;;;;;;;;5032495;28;20223;-67
2023/12/24 02:12:53;;;;;;;1.53;1.03;;;;;;;;;;5031885;28;20229;-67
2023/12/24 02:15:20;;;;;;;1.77;0.90;;;;;;;;;;5030102;28;20195;-66
2023/12/24 02:17:47;;;;;;;1.03;0.90;;;;;;;;;;5026909;28;20199;-67
2023/12/24 02:20:14;;;;;;;1.13;0.93;;;;;;;;;;5029976;28;20212;-68
2023/12/24 02:22:43;;;;;;;0.77;0.77;;;;;;;;;;5032597;28;20212;-67
2023/12/24 02:25:10;;;;;;;0.93;0.93;;;;;;;;;;5033952;28;20224;-68
2023/12/24 02:27:38;;;;;;;0.70;0.70;;;;;;;;;;5030969;28;20207;-66
2023/12/24 02:30:09;;;;;;;1.53;0.70;;;;;;;;;;5028557;28;20204;-67
2023/12/24 02:32:37;;;;;;;1.00;1.00;;;;;;;;;;5026473;28;20200;-67
2023/12/24 02:35:05;;;;;;;2.00;0.80;;;;;;;;;;5033058;28;20230;-66
2023/12/24 02:37:32;;;;;;;1.23;0.97;;;;;;;;;;5029528;28;20200;-68
2023/12/24 02:40:01;;;;;;;2.10;1.00;;;;;;;;;;5032339;28;20224;-67
2023/12/24 02:42:28;;;;;;;0.90;0.90;;;;;;;;;;5035716;28;20200;-67
2023/12/24 02:44:55;;;;;;;2.40;0.80;;;;;;;;;;5025911;28;20212;-67
2023/12/24 02:47:22;;;;;;;1.00;1.00;;;;;;;;;;5026671;28;20204;-67
2023/12/24 02:49:49;;;;;;;1.07;0.97;;;;;;;;;;5026027;28;20273;-67
2023/12/24 02:52:16;;;;;;;2.20;1.10;;;;;;;;;;5028213;28;20211;-66
2023/12/24 02:54:44;;;;;;;1.00;1.00;;;;;;;;;;5028506;28;20210;-68
2023/12/24 02:57:12;;;;;;;2.33;1.10;;;;;;;;;;5026982;28;20206;-67
2023/12/24 02:59:39;;;;;;;2.63;1.17;;;;;;;;;;5031071;28;20204;-68
2023/12/24 03:02:07;;;;;;;0.90;0.90;;;;;;;;;;5029966;28;20417;-67
2023/12/24 03:04:34;;;;;;;0.90;0.90;;;;;;;;;;5033925;28;20233;-67
2023/12/24 03:07:01;;;;;;;1.27;1.20;;;;;;;;;;5029407;28;20307;-62
2023/12/24 03:09:28;;;;;;;0.90;0.90;;;;;;;;;;5035857;28;20200;-62
2023/12/24 03:11:55;;;;;;;1.27;0.87;;;;;;;;;;5032703;28;20204;-62
2023/12/24 03:14:24;;;;;;;0.97;0.97;;;;;;;;;;5026560;28;20258;-62
2023/12/24 03:16:51;;;;;;;1.17;0.90;;;;;;;;;;5034307;28;20211;-62
2023/12/24 03:19:18;;;;;;;1.30;0.70;;;;;;;;;;5023103;28;20296;-62
2023/12/24 03:21:45;;;;;;;1.30;0.90;;;;;;;;;;5028534;28;20208;-62
2023/12/24 03:24:12;;;;;;;0.90;0.70;;;;;;;;;;5034679;28;20227;-63
2023/12/24 03:26:39;;;;;;;0.77;0.77;;;;;;;;;;5033175;28;20208;-62
2023/12/24 03:29:07;;;;;;;1.33;1.00;;;;;;;;;;5026697;28;20209;-64
2023/12/24 03:31:35;;;;;;;1.03;0.90;;;;;;;;;;5028635;28;20212;-64
2023/12/24 03:34:02;;;;;;;0.80;0.80;;;;;;;;;;5030729;28;20196;-62
2023/12/24 03:36:30;;;;;;;1.57;0.87;;;;;;;;;;5026566;28;20235;-63
2023/12/24 03:38:57;;;;;;;0.70;0.70;;;;;;;;;;5029583;28;20196;-63
2023/12/24 03:41:24;;;;;;;0.83;0.77;;;;;;;;;;5033622;28;20212;-63
2023/12/24 03:43:51;;;;;;;0.80;0.80;;;;;;;;;;5036288;28;20208;-64
2023/12/24 03:46:19;;;;;;;0.83;0.80;;;;;;;;;;5035704;28;20212;-64
2023/12/24 03:48:47;;;;;;;1.00;0.87;;;;;;;;;;5032433;28;20196;-62
2023/12/24 03:51:15;;;;;;;0.90;0.90;;;;;;;;;;5035228;28;20277;-62
2023/12/24 03:53:43;;;;;;;0.90;0.90;;;;;;;;;;5036450;28;20207;-63
2023/12/24 03:56:11;;;;;;;0.77;0.73;;;;;;;;;;5036322;28;20208;-62
2023/12/24 03:58:38;;;;;;;0.93;0.93;;;;;;;;;;5034232;28;20203;-62
2023/12/24 04:01:08;;;;;;;1.10;0.93;;;;;;;;;;5032611;28;20207;-62
2023/12/24 04:03:34;;;;;;;1.07;0.80;;;;;;;;;;5033025;28;20199;-63
2023/12/24 04:06:03;;;;;;;0.90;0.90;;;;;;;;;;5031640;28;20252;-63
2023/12/24 04:08:30;;;;;;;1.00;1.00;;;;;;;;;;5033097;28;20219;-62
2023/12/24 04:10:57;;;;;;;0.97;0.97;;;;;;;;;;5035869;28;20212;-63
2023/12/24 04:13:24;;;;;;;1.10;1.10;;;;;;;;;;5034071;28;20196;-62
2023/12/24 04:15:51;;;;;;;1.37;1.00;;;;;;;;;;5038139;28;20191;-68
2023/12/24 04:18:19;;;;;;;2.60;1.00;;;;;;;;;;5031224;28;20205;-67
2023/12/24 04:20:46;;;;;;;0.80;0.80;;;;;;;;;;5035686;28;20208;-67
2023/12/24 04:23:14;;;;;;;2.30;0.80;;;;;;;;;;5033802;28;20208;-66
2023/12/24 04:25:42;;;;;;;1.00;0.90;;;;;;;;;;5039570;28;20219;-66
2023/12/24 04:28:09;;;;;;;0.80;0.80;;;;;;;;;;5028331;28;20203;-66
2023/12/24 04:30:36;;;;;;;1.80;0.97;;;;;;;;;;5030425;28;20211;-67
2023/12/24 04:33:03;;;;;;;0.80;0.80;;;;;;;;;;5033184;28;20218;-67
2023/12/24 04:35:31;;;;;;;1.20;1.10;;;;;;;;;;5029469;28;20236;-67
2023/12/24 04:37:58;;;;;;;0.80;0.80;;;;;;;;;;5033535;28;20207;-66
2023/12/24 04:40:26;;;;;;;1.43;0.90;;;;;;;;;;5033452;28;20291;-68
2023/12/24 04:42:53;;;;;;;1.73;0.80;;;;;;;;;;5039608;28;20204;-67
2023/12/24 04:45:20;;;;;;;0.87;0.87;;;;;;;;;;5031441;28;20224;-68
2023/12/24 04:47:48;;;;;;;1.13;1.03;;;;;;;;;;5033092;28;20214;-67
2023/12/24 04:50:15;;;;;;;1.17;1.07;;;;;;;;;;5034446;28;20236;-68
2023/12/24 04:52:42;;;;;;;1.13;1.03;;;;;;;;;;5030360;28;20265;-66
2023/12/24 04:55:10;;;;;;;1.23;1.20;;;;;;;;;;5033852;28;20231;-67
2023/12/24 04:57:38;;;;;;;1.10;1.10;;;;;;;;;;5034975;28;20203;-67
2023/12/24 05:00:06;;;;;;;1.43;1.27;;;;;;;;;;5031415;28;20208;-67
2023/12/24 05:02:34;;;;;;;1.60;1.40;;;;;;;;;;5034839;28;20239;-67
2023/12/24 05:05:01;;;;;;;3.20;1.63;;;;;;;;;;5032310;28;20228;-68
2023/12/24 05:07:28;;;;;;;1.50;1.40;;;;;;;;;;5034159;28;20212;-67
2023/12/24 05:09:55;;;;;;;1.73;1.63;;;;;;;;;;5035367;28;20208;-67
2023/12/24 05:12:22;;;;;;;2.10;1.80;;;;;;;;;;5031851;28;20208;-68
2023/12/24 05:14:51;;;;;;;2.00;1.83;;;;;;;;;;5034455;28;20200;-67
2023/12/24 05:17:18;;;;;;;1.97;1.80;;;;;;;;;;5035451;28;20204;-67
2023/12/24 05:19:45;;;;;;;2.67;2.20;;;;;;;;;;5025559;28;20209;-68
2023/12/24 05:22:12;;;;;;;2.10;2.00;;;;;;;;;;5033040;28;20414;-68
2023/12/24 05:24:39;;;;;;;2.40;2.20;;;;;;;;;;5029354;28;20204;-67
2023/12/24 05:27:06;;;;;;;2.50;2.30;;;;;;;;;;5034274;28;20200;-67
2023/12/24 05:29:34;;;;;;;2.33;2.13;;;;;;;;;;5029719;28;20218;-67
2023/12/24 05:32:02;;;;;;;2.13;1.97;;;;;;;;;;5030673;28;20481;-68
2023/12/24 05:34:30;;;;;;;2.30;2.10;;;;;;;;;;5031194;28;20207;-68
2023/12/24 05:37:00;;;;;;;3.27;2.30;;;;;;;;;;5033434;28;20204;-68
2023/12/24 05:39:27;;;;;;;2.10;2.00;;;;;;;;;;5032280;28;20430;-67
2023/12/24 05:41:55;;;;;;;2.10;1.90;;;;;;;;;;5028013;28;20254;-67
2023/12/24 05:44:22;;;;;;;2.20;2.00;;;;;;;;;;5030447;28;20213;-67
2023/12/24 05:46:52;;;;;;;2.10;1.90;;;;;;;;;;5035064;28;20227;-67
2023/12/24 05:49:20;;;;;;;1.90;1.80;;;;;;;;;;5035134;28;20211;-66
2023/12/24 05:51:47;;;;;;;1.90;1.80;;;;;;;;;;5035237;28;20193;-68
2023/12/24 05:54:15;;;;;;;2.00;1.83;;;;;;;;;;5035712;28;20200;-67
2023/12/24 05:56:42;;;;;;;2.00;1.90;;;;;;;;;;5031807;28;20198;-68
2023/12/24 05:59:09;;;;;;;1.73;1.63;;;;;;;;;;5030397;28;20208;-67
2023/12/24 06:01:36;;;;;;;1.90;1.80;;;;;;;;;;5035018;28;20215;-68
2023/12/24 06:04:03;;;;;;;1.97;1.87;;;;;;;;;;5035140;28;20226;-67
2023/12/24 06:06:32;;;;;;;1.93;1.70;;;;;;;;;;5039776;28;20226;-68
2023/12/24 06:08:59;;;;;;;2.13;1.87;;;;;;;;;;5032220;28;20203;-67
2023/12/24 06:11:26;;;;;;;1.73;1.63;;;;;;;;;;5032095;28;20201;-66
2023/12/24 06:13:53;;;;;;;1.90;1.80;;;;;;;;;;5036042;28;20210;-67
2023/12/24 06:16:20;;;;;;;2.10;1.90;;;;;;;;;;5034204;28;20204;-68
2023/12/24 06:18:47;;;;;;;2.93;2.10;;;;;;;;;;5032535;28;20203;-67
2023/12/24 06:21:14;;;;;;;3.87;1.80;;;;;;;;;;5032109;28;20204;-65
2023/12/24 06:23:43;;;;;;;1.83;1.73;;;;;;;;;;5035619;28;20204;-67
2023/12/24 06:26:10;;;;;;;1.70;1.60;;;;;;;;;;5036156;28;20237;-67
2023/12/24 06:28:37;;;;;;;1.60;1.50;;;;;;;;;;5028115;28;20210;-66
2023/12/24 06:31:04;;;;;;;1.40;1.30;;;;;;;;;;5034704;28;20207;-67
2023/12/24 06:33:31;;;;;;;1.67;1.53;;;;;;;;;;5034579;28;20199;-66
2023/12/24 06:35:58;;;;;;;1.83;1.27;;;;;;;;;;5028665;28;20246;-62
2023/12/24 06:38:26;;;;;;;1.27;1.27;;;;;;;;;;5030183;28;20216;-62
2023/12/24 06:40:56;;;;;;;1.30;1.20;;;;;;;;;;5028303;28;20203;-61
2023/12/24 06:43:23;;;;;;;1.10;1.10;;;;;;;;;;5030879;28;20203;-63
2023/12/24 06:45:50;;;;;;;1.40;1.30;;;;;;;;;;5040221;28;20212;-62
2023/12/24 06:48:17;;;;;;;1.60;1.40;;;;;;;;;;5031942;28;20207;-63
2023/12/24 06:50:44;;;;;;;1.17;1.17;;;;;;;;;;5029644;28;20209;-63
2023/12/24 06:53:11;;;;;;;1.27;1.17;;;;;;;;;;5028519;28;20203;-62
2023/12/24 06:55:39;;;;;;;2.10;1.20;;;;;;;;;;5026460;28;20222;-63
2023/12/24 06:58:07;;;;;;;1.10;1.00;;;;;;;;;;5033238;28;20206;-62
2023/12/24 07:00:34;;;;;;;1.10;1.10;;;;;;;;;;5031509;28;20299;-62
2023/12/24 07:03:01;;;;;;;2.07;1.00;;;;;;;;;;5030317;28;20234;-63
2023/12/24 07:05:34;;;;;;;0.80;0.80;;;;;;;;;;5026075;28;20247;-62
2023/12/24 07:08:01;;;;;;;1.50;1.40;;;;;;;;;;5026721;28;20200;-61
2023/12/24 07:10:28;;;;;;;1.27;1.10;;;;;;;;;;5031411;28;20216;-62
2023/12/24 07:12:56;;;;;;;1.00;1.00;;;;;;;;;;5030818;28;20208;-61
2023/12/24 07:15:25;;;;;;;1.47;0.90;;;;;;;;;;5042138;28;20200;-61
2023/12/24 07:17:52;;;;;;;0.90;0.90;;;;;;;;;;5032939;28;20200;-62
2023/12/24 07:20:19;;;;;;;1.10;1.00;;;;;;;;;;5038086;28;20210;-62
2023/12/24 07:22:46;;;;;;;1.20;1.10;;;;;;;;;;5027980;28;20209;-62
2023/12/24 07:25:14;;;;;;;2.33;1.30;;;;;;;;;;5024595;28;20230;-62
2023/12/24 07:27:41;;;;;;;1.10;1.10;;;;;;;;;;5027117;28;20224;-62
2023/12/24 07:30:09;;;;;;;1.00;1.00;;;;;;;;;;5031540;28;20204;-61
2023/12/24 07:32:37;;;;;;;1.10;1.00;;;;;;;;;;5026404;28;20200;-63
2023/12/24 07:35:04;;;;;;;1.10;1.00;;;;;;;;;;5028120;28;20239;-61
2023/12/24 07:37:31;;;;;;;1.20;1.20;;;;;;;;;;5033002;28;20204;-63
2023/12/24 07:39:58;;;;;;;2.77;1.10;;;;;;;;;;5028917;28;20208;-62
2023/12/24 07:42:25;;;;;;;1.00;1.00;;;;;;;;;;5034686;28;20223;-63
2023/12/24 07:44:53;;;;;;;1.07;1.07;;;;;;;;;;5027761;28;20200;-61
2023/12/24 07:47:20;;;;;;;0.83;0.83;;;;;;;;;;5025668;28;20224;-67
2023/12/24 07:49:48;;;;;;;1.00;1.00;;;;;;;;;;5036138;28;20475;-68
2023/12/24 07:52:15;;;;;;;1.10;1.10;;;;;;;;;;5029875;28;20204;-66
2023/12/24 07:54:42;;;;;;;1.83;1.00;;;;;;;;;;5024974;28;20199;-66
2023/12/24 07:57:09;;;;;;;0.87;0.87;;;;;;;;;;5029581;28;20197;-66
2023/12/24 07:59:37;;;;;;;0.90;0.90;;;;;;;;;;5024429;28;20209;-67
2023/12/24 08:02:04;;;;;;;0.90;0.90;;;;;;;;;;5014659;28;20201;-67
2023/12/24 08:04:32;;;;;;;0.90;0.90;;;;;;;;;;5021906;28;20200;-67
2023/12/24 08:07:00;;;;;;;1.07;1.07;;;;;;;;;;5029972;28;20234;-67
2023/12/24 08:09:27;;;;;;;1.10;1.10;;;;;;;;;;5029637;28;20208;-66
2023/12/24 08:11:54;;;;;;;1.10;1.10;;;;;;;;;;5026756;28;20208;-67
2023/12/24 08:14:21;;;;;;;1.10;0.90;;;;;;;;;;5026401;28;20202;-67
2023/12/24 08:16:49;;;;;;;0.70;0.70;;;;;;;;;;5030577;28;20295;-67
2023/12/24 08:19:16;;;;;;;0.90;0.90;;;;;;;;;;5032575;28;20196;-68
2023/12/24 08:21:43;;;;;;;0.83;0.83;;;;;;;;;;5026170;28;20200;-66
2023/12/24 08:24:12;;;;;;;0.70;0.70;;;;;;;;;;5013522;28;20204;-67
2023/12/24 08:26:39;;;;;;;0.80;0.80;;;;;;;;;;5018134;28;20225;-66
2023/12/24 08:29:06;;;;;;;0.70;0.70;;;;;;;;;;5013899;28;20208;-66
2023/12/24 08:31:33;;;;;;;0.63;0.60;;;;;;;;;;5027283;28;20208;-67
2023/12/24 08:34:00;;;;;;;0.77;0.60;;;;;;;;;;5033002;28;20508;-67
2023/12/24 08:36:27;;;;;;;0.60;0.60;;;;;;;;;;5030364;28;20236;-67
2023/12/24 08:38:54;;;;;;;0.70;0.70;;;;;;;;;;5030267;28;20314;-68
2023/12/24 08:41:23;;;;;;;0.60;0.60;;;;;;;;;;5037465;28;20196;-68
2023/12/24 08:43:50;;;;;;;1.43;0.77;;;;;;;;;;5031710;28;20299;-68
2023/12/24 08:46:17;;;;;;;0.70;0.60;;;;;;;;;;5031746;28;20235;-67
2023/12/24 08:48:44;;;;;;;0.47;0.47;;;;;;;;;;5033069;28;20200;-67
2023/12/24 08:51:11;;;;;;;0.80;0.80;;;;;;;;;;5031846;28;20208;-66
2023/12/24 08:53:38;;;;;;;1.07;0.97;;;;;;;;;;5033585;28;20256;-68
2023/12/24 08:56:06;;;;;;;0.80;0.80;;;;;;;;;;5035173;28;20197;-67
2023/12/24 08:58:34;;;;;;;0.53;0.53;;;;;;;;;;5035411;28;20212;-67
2023/12/24 09:01:01;;;;;;;0.80;0.80;;;;;;;;;;5030723;28;20215;-67
2023/12/24 09:03:28;;;;;;;0.70;0.70;;;;;;;;;;5032816;28;20227;-67
2023/12/24 09:05:55;;;;;;;0.70;0.70;;;;;;;;;;5032744;28;20211;-67
2023/12/24 09:08:23;;;;;;;0.50;0.50;;;;;;;;;;5030379;28;20215;-67
2023/12/24 09:10:50;;;;;;;0.40;0.40;;;;;;;;;;5029785;28;20246;-67
2023/12/24 09:13:17;;;;;;;0.53;0.53;;;;;;;;;;5029533;28;20207;-67
2023/12/24 09:15:45;;;;;;;1.70;0.50;;;;;;;;;;5033092;28;20204;-67
2023/12/24 09:18:12;;;;;;;0.50;0.50;;;;;;;;;;5031118;28;20202;-67
2023/12/24 09:20:40;;;;;;;1.37;0.40;;;;;;;;;;5027682;28;20201;-68
2023/12/24 09:23:07;;;;;;;0.53;0.53;;;;;;;;;;5022093;28;20208;-67
2023/12/24 09:25:34;;;;;;;0.70;0.70;;;;;;;;;;5015067;28;20204;-67
2023/12/24 09:28:01;;;;;;;0.83;0.77;;;;;;;;;;5012645;28;20228;-67
2023/12/24 09:30:28;;;;;;;0.63;0.63;;;;;;;;;;5020762;28;20208;-68
2023/12/24 09:32:56;;;;;;;0.73;0.73;;;;;;;;;;5030127;28;20200;-66
2023/12/24 09:35:24;;;;;;;0.70;0.63;;;;;;;;;;5027877;28;20439;-67
2023/12/24 09:37:51;;;;;;;0.50;0.50;;;;;;;;;;5030327;28;20200;-67
2023/12/24 09:40:18;;;;;;;0.30;0.30;;;;;;;;;;5034253;28;20291;-67
2023/12/24 09:42:45;;;;;;;0.37;0.37;;;;;;;;;;5027134;28;20204;-67
2023/12/24 09:45:12;;;;;;;0.70;0.70;;;;;;;;;;5027965;28;20206;-67
2023/12/24 09:47:40;;;;;;;0.40;0.40;;;;;;;;;;5030085;28;20234;-67
2023/12/24 09:50:09;;;;;;;0.50;0.43;;;;;;;;;;5028205;28;20210;-67
2023/12/24 09:52:36;;;;;;;0.57;0.57;;;;;;;;;;5013656;28;20209;-67
2023/12/24 09:55:04;;;;;;;0.40;0.40;;;;;;;;;;5014880;28;20208;-67
2023/12/24 09:57:31;;;;;;;0.70;0.40;;;;;;;;;;5014190;28;20204;-68
2023/12/24 09:59:59;;;;;;;0.30;0.30;;;;;;;;;;5013457;28;20212;-67
2023/12/24 10:02:26;;;;;;;0.40;0.40;;;;;;;;;;5012985;28;20238;-67
2023/12/24 10:04:54;;;;;;;0.30;0.30;;;;;;;;;;5014829;28;20235;-67
2023/12/24 10:07:22;;;;;;;0.50;0.50;;;;;;;;;;5014520;28;20227;-63
2023/12/24 10:09:50;;;;;;;1.07;0.43;;;;;;;;;;5016104;28;20204;-62
2023/12/24 10:12:17;;;;;;;0.60;0.60;;;;;;;;;;5015047;28;20208;-62
2023/12/24 10:14:54;;;;;;;0.80;0.80;;;;;;;;;;5023211;28;20192;-62
2023/12/24 10:17:28;;;;;;;1.97;1.87;;;;;;;;;;5027195;28;20195;-62
2023/12/24 10:19:54;;;;;;;0.63;0.63;;;;;;;;;;5029471;28;20293;-62
2023/12/24 10:22:24;;;;;;;0.60;0.60;;;;;;;;;;5031844;28;20199;-62
2023/12/24 10:24:54;;;;;;;0.57;0.57;;;;;;;;;;5028061;28;20208;-62
2023/12/24 10:27:21;;;;;;;0.47;0.47;;;;;;;;;;5029183;28;20219;-62
2023/12/24 10:29:48;;;;;;;0.53;0.53;;;;;;;;;;5030872;28;20211;-62
2023/12/24 10:32:15;;;;;;;0.90;0.50;;;;;;;;;;5036635;28;20212;-62
2023/12/24 10:34:42;;;;;;;0.40;0.40;;;;;;;;;;5030719;28;20204;-62
2023/12/24 10:37:21;;;;;;;0.50;0.50;;;;;;;;;;5030744;28;20212;-62
2023/12/24 10:39:50;;;;;;;0.67;0.50;;;;;;;;;;5032276;28;20207;-62
2023/12/24 10:42:17;;;;;;;0.30;0.30;;;;;;;;;;5034643;28;20204;-63
2023/12/24 10:44:44;;;;;;;1.20;0.60;;;;;;;;;;5030589;28;20200;-62
2023/12/24 10:47:11;;;;;;;0.60;0.40;;;;;;;;;;5025203;28;20262;-63
2023/12/24 10:49:39;;;;;;;0.83;0.60;;;;;;;;;;5033834;28;20223;-62
2023/12/24 10:52:06;;;;;;;0.63;0.60;;;;;;;;;;5032617;28;20204;-62
2023/12/24 10:54:34;;;;;;;0.90;0.70;;;;;;;;;;5028871;28;20211;-63
2023/12/24 10:57:10;;;;;;;0.70;0.70;;;;;;;;;;5027536;28;20209;-63
2023/12/24 10:59:48;;;;;;;0.77;0.77;;;;;;;;;;5028022;28;20207;-62
2023/12/24 11:02:16;;;;;;;1.60;0.70;;;;;;;;;;5038825;28;20207;-62
2023/12/24 11:04:44;;;;;;;1.03;0.40;;;;;;;;;;5028856;28;20206;-62
2023/12/24 11:07:11;;;;;;;0.60;0.60;;;;;;;;;;5025794;28;20262;-63
2023/12/24 11:09:47;;;;;;;0.90;0.90;;;;;;;;;;5024163;28;20211;-63
2023/12/24 11:12:32;;;;;;;0.63;0.63;;;;;;;;;;5014800;28;20203;-63
2023/12/24 11:14:58;;;;;;;0.70;0.70;;;;;;;;;;5016964;28;20200;-62
2023/12/24 11:17:49;;;;;;;1.27;0.60;;;;;;;;;;5033144;28;20241;-62
2023/12/24 11:20:29;;;;;;;0.40;0.40;;;;;;;;;;5030526;28;20206;-62
2023/12/24 11:23:13;;;;;;;0.50;0.50;;;;;;;;;;5018422;28;20212;-63
2023/12/24 11:25:41;;;;;;;1.77;0.60;;;;;;;;;;5012827;28;20219;-62
2023/12/24 11:28:12;;;;;;;1.30;0.50;;;;;;;;;;5013649;28;20228;-63
2023/12/24 11:30:58;;;;;;;1.27;0.50;;;;;;;;;;5014452;28;20212;-64
2023/12/24 11:33:44;;;;;;;0.67;0.67;;;;;;;;;;5014073;28;20204;-62
2023/12/24 11:36:12;;;;;;;0.40;0.40;;;;;;;;;;5012130;28;20267;-63
2023/12/24 11:38:42;;;;;;;0.40;0.40;;;;;;;;;;5009417;28;20222;-63
2023/12/24 11:41:10;;;;;;;0.63;0.60;;;;;;;;;;5014063;28;20239;-63
2023/12/24 11:43:39;;;;;;;0.70;0.40;;;;;;;;;;5016392;28;20200;-62
2023/12/24 11:46:07;;;;;;;0.60;0.60;;;;;;;;;;5023086;28;20222;-63
2023/12/24 11:48:35;;;;;;;0.40;0.40;;;;;;;;;;5016648;28;20223;-63
2023/12/24 11:51:03;;;;;;;0.50;0.50;;;;;;;;;;5016915;28;20211;-62
2023/12/24 11:53:32;;;;;;;0.47;0.47;;;;;;;;;;5018218;28;20212;-61
2023/12/24 11:56:10;;;;;;;2.13;0.70;;;;;;;;;;5028106;28;20192;-63
2023/12/24 11:58:39;;;;;;;0.33;0.33;;;;;;;;;;5026668;28;20207;-62
2023/12/24 12:01:06;;;;;;;0.50;0.50;;;;;;;;;;5027422;28;20287;-61
2023/12/24 12:03:34;;;;;;;0.40;0.40;;;;;;;;;;5032641;28;20203;-62
2023/12/24 12:06:01;;;;;;;0.60;0.60;;;;;;;;;;5029739;28;20211;-62
2023/12/24 12:08:29;;;;;;;0.50;0.50;;;;;;;;;;5018587;28;20235;-61
2023/12/24 12:10:56;;;;;;;0.50;0.50;;;;;;;;;;5017356;28;20201;-62
2023/12/24 12:13:23;;;;;;;0.50;0.50;;;;;;;;;;5018112;28;20202;-63
2023/12/24 12:15:52;;;;;;;0.50;0.50;;;;;;;;;;5017493;28;20204;-62
2023/12/24 12:18:19;;;;;;;0.80;0.80;;;;;;;;;;5015820;28;20215;-63
2023/12/24 12:20:46;;;;;;;1.60;1.00;;;;;;;;;;5017533;28;20203;-62
2023/12/24 12:23:16;;;;;;;1.00;1.00;;;;;;;;;;5021006;28;20212;-62
2023/12/24 12:25:43;;;;;;;0.83;0.80;;;;;;;;;;5016868;28;20579;-63
2023/12/24 12:28:10;;;;;;;0.60;0.60;;;;;;;;;;5025264;28;20266;-68
2023/12/24 12:30:37;;;;;;;0.87;0.87;;;;;;;;;;5017098;28;20270;-66
2023/12/24 12:33:06;;;;;;;0.97;0.80;;;;;;;;;;5016241;28;20211;-67
2023/12/24 12:35:33;;;;;;;1.30;1.07;;;;;;;;;;5027513;28;20228;-67
2023/12/24 12:38:00;;;;;;;1.57;1.47;;;;;;;;;;5029588;28;20242;-66
2023/12/24 12:40:28;;;;;;;0.90;0.90;;;;;;;;;;5025958;28;20208;-67
2023/12/24 12:42:55;;;;;;;1.60;1.50;;;;;;;;;;5032624;28;20200;-68
2023/12/24 12:45:22;;;;;;;1.30;1.17;;;;;;;;;;5031455;28;20200;-66
2023/12/24 12:47:49;;;;;;;0.87;0.60;;;;;;;;;;5029388;28;20341;-67
2023/12/24 12:50:17;;;;;;;1.00;1.00;;;;;;;;;;5032044;28;20204;-67
2023/12/24 12:52:49;;;;;;;0.93;0.90;;;;;;;;;;5034122;28;20208;-66
2023/12/24 12:55:16;;;;;;;0.90;0.87;;;;;;;;;;5031570;28;20197;-67
2023/12/24 12:57:44;;;;;;;1.50;1.40;;;;;;;;;;5032328;28;20296;-67
2023/12/24 13:00:13;;;;;;;0.77;0.77;;;;;;;;;;5029910;28;20257;-67
2023/12/24 13:02:41;;;;;;;0.60;0.60;;;;;;;;;;5034284;28;20204;-66
2023/12/24 13:05:24;;;;;;;0.80;0.80;;;;;;;;;;5030980;28;20283;-66
2023/12/24 13:07:53;;;;;;;1.37;1.17;;;;;;;;;;5032270;28;20228;-66
2023/12/24 13:10:27;;;;;;;0.90;0.90;;;;;;;;;;5031825;28;20269;-67
2023/12/24 13:13:06;;;;;;;0.70;0.60;;;;;;;;;;5030979;28;20225;-67
2023/12/24 13:15:33;;;;;;;0.90;0.90;;;;;;;;;;5031196;28;20203;-67
2023/12/24 13:18:14;;;;;;;1.50;1.00;;;;;;;;;;5033784;28;20225;-67
2023/12/24 13:20:41;;;;;;;1.20;1.20;;;;;;;;;;5028727;28;20204;-66
2023/12/24 13:23:11;;;;;;;0.50;0.50;;;;;;;;;;5029283;28;20204;-67
2023/12/24 13:25:40;;;;;;;0.70;0.70;;;;;;;;;;5035493;28;20227;-66
2023/12/24 13:28:07;;;;;;;0.50;0.50;;;;;;;;;;5028948;28;20220;-67
2023/12/24 13:30:34;;;;;;;0.60;0.57;;;;;;;;;;5030153;28;20201;-67
2023/12/24 13:33:01;;;;;;;0.63;0.60;;;;;;;;;;5028018;28;20206;-67
2023/12/24 13:35:29;;;;;;;0.70;0.70;;;;;;;;;;5030543;28;20232;-67
2023/12/24 13:37:56;;;;;;;0.60;0.60;;;;;;;;;;5029469;28;20200;-67
2023/12/24 13:40:24;;;;;;;0.47;0.47;;;;;;;;;;5028139;28;20200;-66
2023/12/24 13:42:51;;;;;;;0.40;0.40;;;;;;;;;;5034894;28;20226;-67
2023/12/24 13:45:19;;;;;;;0.60;0.60;;;;;;;;;;5031242;28;20203;-67
2023/12/24 13:47:46;;;;;;;0.60;0.60;;;;;;;;;;5033435;28;20227;-67
2023/12/24 13:50:13;;;;;;;0.90;0.60;;;;;;;;;;5031122;28;20204;-67
2023/12/24 13:52:40;;;;;;;1.53;0.83;;;;;;;;;;5034341;28;20214;-66
2023/12/24 13:55:07;;;;;;;0.53;0.53;;;;;;;;;;5034849;28;20206;-67
2023/12/24 13:57:36;;;;;;;1.43;0.47;;;;;;;;;;5029735;28;20204;-67
2023/12/24 14:00:04;;;;;;;1.17;0.77;;;;;;;;;;5034589;28;20204;-67
2023/12/24 14:02:30;;;;;;;0.30;0.30;;;;;;;;;;5032799;28;20199;-66
2023/12/24 14:04:57;;;;;;;4.80;4.40;;;;;;;;;;5031243;28;20230;-67
2023/12/24 14:07:24;;;;;;;0.97;0.60;;;;;;;;;;5032300;28;20218;-67
2023/12/24 14:09:51;;;;;;;0.50;0.50;;;;;;;;;;5031095;28;20204;-67
2023/12/24 14:12:18;;;;;;;0.30;0.30;;;;;;;;;;5033702;28;20200;-66
2023/12/24 14:14:47;;;;;;;0.70;0.67;;;;;;;;;;5028482;28;20212;-67
2023/12/24 14:17:14;;;;;;;0.40;0.40;;;;;;;;;;5039854;28;20216;-66
2023/12/24 14:19:40;;;;;;;0.50;0.50;;;;;;;;;;5039811;28;20207;-67
2023/12/24 14:22:07;;;;;;;1.10;1.10;;;;;;;;;;5029240;28;20200;-66
2023/12/24 14:24:34;;;;;;;64.50;50.17;;;;;;;;;;5032037;28;20212;-67
2023/12/24 14:27:01;;;;;;;9.27;7.17;;;;;;;;;;5032573;28;20200;-67
2023/12/24 14:29:29;;;;;;;23.23;19.27;;;;;;;;;;5031292;28;20247;-66
2023/12/24 14:31:57;;;;;;;27.37;19.40;;;;;;;;;;5031184;28;20236;-66
2023/12/24 14:34:24;;;;;;;69.80;44.90;;;;;;;;;;5037409;28;20211;-67
2023/12/24 14:36:51;;;;;;;17.67;16.10;;;;;;;;;;5029751;28;20232;-66
2023/12/24 14:39:18;;;;;;;2.10;2.00;;;;;;;;;;5028339;28;20192;-66
2023/12/24 14:41:45;;;;;;;2.67;2.47;;;;;;;;;;5028623;28;20295;-66
2023/12/24 14:44:13;;;;;;;1.20;1.10;;;;;;;;;;5024716;28;20203;-67
2023/12/24 14:46:40;;;;;;;1.93;1.83;;;;;;;;;;5013171;28;20195;-61